This is the latest recevied weather packets stored in our database for station/object K8RLH. If no packets are shown the sender has not sent any weather packets the latest 10 day(s).
| Time | Temp. | Humidity | Pressure | Rain* | Wind** | Luminosity | Snow |
|---|---|---|---|---|---|---|---|
| 1777652206 | 16.11° C | 52% | 1017 hPa | 0 mm | - | 165 W/m² | - |
| 1777651903 | 16.11° C | 53% | 1017.1 hPa | 0 mm | - | 170 W/m² | - |
| 1777651600 | 16.11° C | 54% | 1017.2 hPa | 0 mm | - | 152 W/m² | - |
| 1777651297 | 16.11° C | 51% | 1017.4 hPa | 0 mm | - | 156 W/m² | - |
| 1777650993 | 16.11° C | 51% | 1017.7 hPa | 0 mm | - | 171 W/m² | - |
| 1777650691 | 16.11° C | 52% | 1017.7 hPa | 0 mm | - | 166 W/m² | - |
| 1777650388 | 16.11° C | 53% | 1017.4 hPa | 0 mm | - | 151 W/m² | - |
| 1777650085 | 16.11° C | 50% | 1017.4 hPa | 0 mm | - | 140 W/m² | - |
| 1777649782 | 16.11° C | 51% | 1017.6 hPa | 0 mm | - | 168 W/m² | - |
| 1777649479 | 16.67° C | 49% | 1017.4 hPa | 0 mm | - | 213 W/m² | - |
| 1777649176 | 16.11° C | 50% | 1017.3 hPa | 0 mm | - | 260 W/m² | - |
| 1777648873 | 16.67° C | 47% | 1017.5 hPa | 0 mm | - | 223 W/m² | - |
| 1777648266 | 15.56° C | 50% | 1017.5 hPa | 0 mm | - | 184 W/m² | - |
| 1777647961 | 15.56° C | 50% | 1017.5 hPa | 0 mm | - | 176 W/m² | - |
| 1777647659 | 15° C | 51% | 1017.2 hPa | 0 mm | - | 200 W/m² | - |
| 1777647354 | 15.56° C | 50% | 1017.1 hPa | 0 mm | - | 218 W/m² | - |
| 1777647053 | 15° C | 53% | 1017.1 hPa | 0 mm | - | 153 W/m² | - |
| 1777646749 | 15° C | 52% | 1016.9 hPa | 0 mm | - | 198 W/m² | - |
| 1777646444 | 15° C | 54% | 1016.9 hPa | 0 mm | - | 166 W/m² | - |
| 1777646141 | 14.44° C | 57% | 1017.2 hPa | 0 mm | - | 169 W/m² | - |
| 1777645838 | 14.44° C | 54% | 1017 hPa | 0 mm | - | 147 W/m² | - |
| 1777645535 | 14.44° C | 55% | 1017.2 hPa | 0 mm | - | 111 W/m² | - |
| 1777645231 | 14.44° C | 55% | 1017.2 hPa | 0 mm | - | 148 W/m² | - |
| 1777644927 | 14.44° C | 57% | 1017.1 hPa | 0 mm | - | 140 W/m² | - |
| 1777644625 | 13.89° C | 56% | 1017.2 hPa | 0 mm | - | 114 W/m² | - |
* Rain latest hour (hover to see other rain measurements)
** Current wind speed in m/s (hover to see current wind gust speed)